Argyle, Georgia
Current Conditions -  °F | °C
As of 12:55 PM on Thursday 23 Oct 2014 (Local Time) from KHOE Reporting Station
Clear Clear  
Wind Chill: 72°   Ceiling: Unl
Heat Index: 72°   Visibility: 10mi
Dew Point: 46°   Wind: 5mph
Humidity: 41%   Direction: 90°E
Pressure: 30.09"   Gusts: NA
Location:  31.07°N, 82.65°W
Report Text: KHOE 231655Z AUTO 09004KT 10SM CLR 22/08 A3009 RMK AO2
Loading
Personal Weather Stations






























Interactive Weather Map
Tropical Storm Tracking
New forecast layout! Learn more

10-Day Weather Forecast

Advertisements
Track Severe Weather on mobile